Alpine Village, Colorado
Current Conditions -  °F | °C
As of 2:34 PM on Friday 24 Oct 2014 (Local Time) from K7BM Reporting Station
Clear Clear  
Wind Chill: 20°   Ceiling: Unl
Heat Index: 20°   Visibility: 10mi
Dew Point: -20°   Wind: 12mph
Humidity: 6%   Direction: 260°W
Pressure: 30.47"   Gusts: 20mph
Location:  38.7194°N, 106.276°W
Report Text: K7BM 242034Z AUTO 26010G17KT 10SM CLR 20/M20 A3047 RMK AO2
Loading
Personal Weather Stations






























Interactive Weather Map
Tropical Storm Tracking
New forecast layout! Learn more

10-Day Weather Forecast

Advertisements
Track Severe Weather on mobile